createdAt,value
2017-09-05T00:00:56.869Z,8.94
2017-09-05T00:01:56.858Z,8.80
2017-09-05T00:02:56.847Z,8.99
2017-09-05T00:03:56.832Z,8.94
2017-09-05T00:04:56.821Z,8.83
2017-09-05T00:05:56.808Z,8.83
2017-09-05T00:06:56.948Z,8.89
2017-09-05T00:07:56.784Z,8.95
2017-09-05T00:08:56.775Z,8.96
2017-09-05T00:09:56.759Z,8.92
2017-09-05T00:10:56.746Z,8.94
2017-09-05T00:11:56.733Z,8.92
2017-09-05T00:12:56.877Z,8.83
2017-09-05T00:13:56.709Z,8.92
2017-09-05T00:14:56.697Z,8.79
2017-09-05T00:15:56.683Z,8.83
2017-09-05T00:16:56.670Z,8.79
2017-09-05T00:17:56.658Z,8.76
2017-09-05T00:18:56.796Z,8.80
2017-09-05T00:19:56.631Z,8.83
2017-09-05T00:20:56.622Z,8.76
2017-09-05T00:21:56.607Z,8.84
2017-09-05T00:22:56.595Z,8.80
2017-09-05T00:23:56.583Z,8.77
2017-09-05T00:24:56.721Z,8.73
2017-09-05T00:25:56.557Z,8.79
2017-09-05T00:26:56.541Z,8.71
2017-09-05T00:27:56.531Z,8.73
2017-09-05T00:28:56.524Z,8.70
2017-09-05T00:29:56.506Z,8.81
2017-09-05T00:30:56.643Z,8.74
2017-09-05T00:31:56.480Z,8.76
2017-09-05T00:32:56.467Z,8.80
2017-09-05T00:33:56.451Z,8.74
2017-09-05T00:34:56.441Z,8.76
2017-09-05T00:35:56.428Z,8.87
2017-09-05T00:36:56.565Z,8.76
2017-09-05T00:37:56.398Z,8.79
2017-09-05T00:38:56.390Z,8.79
2017-09-05T00:39:56.378Z,8.80
2017-09-05T00:40:56.364Z,8.83
2017-09-05T00:41:56.349Z,8.86
2017-09-05T00:42:56.487Z,8.87
2017-09-05T00:43:56.324Z,8.84
2017-09-05T00:44:56.312Z,8.83
2017-09-05T00:45:56.299Z,8.80
2017-09-05T00:46:56.285Z,8.86
2017-09-05T00:47:56.272Z,8.89
2017-09-05T00:48:56.411Z,8.87
2017-09-05T00:49:56.248Z,8.84
2017-09-05T00:50:56.271Z,8.80
2017-09-05T00:51:56.222Z,8.81
2017-09-05T00:52:56.211Z,8.81
2017-09-05T00:53:56.195Z,8.81
2017-09-05T00:54:56.336Z,8.76
2017-09-05T00:55:56.172Z,8.80
2017-09-05T00:56:56.160Z,8.76
2017-09-05T00:57:56.149Z,8.77
2017-09-05T00:58:56.135Z,8.79
2017-09-05T00:59:56.121Z,8.84
2017-09-05T01:00:56.260Z,8.84
2017-09-05T01:01:56.099Z,8.79
2017-09-05T01:02:56.085Z,8.79
2017-09-05T01:03:56.071Z,8.80
2017-09-05T01:04:56.057Z,8.80
2017-09-05T01:05:56.046Z,8.91
2017-09-05T01:06:56.184Z,8.83
2017-09-05T01:07:56.019Z,8.79
2017-09-05T01:08:56.009Z,8.79
2017-09-05T01:09:55.993Z,8.91
2017-09-05T01:10:55.985Z,8.79
2017-09-05T01:11:55.970Z,8.80
2017-09-05T01:12:56.108Z,8.73
2017-09-05T01:13:55.944Z,8.70
2017-09-05T01:14:55.930Z,8.70
2017-09-05T01:15:55.918Z,8.68
2017-09-05T01:16:55.908Z,8.65
2017-09-05T01:17:55.891Z,8.62
2017-09-05T01:18:56.031Z,8.59
2017-09-05T01:19:55.868Z,8.59
2017-09-05T01:20:55.856Z,8.58
2017-09-05T01:21:55.840Z,8.52
2017-09-05T01:22:55.829Z,8.53
2017-09-05T01:23:55.817Z,8.53
2017-09-05T01:24:55.804Z,8.56
2017-09-05T01:25:55.941Z,8.59
2017-09-05T01:26:55.928Z,8.62
2017-09-05T01:27:55.766Z,8.48
2017-09-05T01:28:55.751Z,8.62
2017-09-05T01:29:55.739Z,8.62
2017-09-05T01:30:55.724Z,8.58
2017-09-05T01:31:55.711Z,8.61
2017-09-05T01:32:55.851Z,8.59
2017-09-05T01:33:55.688Z,8.45
2017-09-05T01:34:55.673Z,8.50
2017-09-05T01:35:55.660Z,8.58
2017-09-05T01:36:55.650Z,8.50
2017-09-05T01:37:55.636Z,8.50
2017-09-05T01:38:55.773Z,8.52
2017-09-05T01:39:55.612Z,8.55
2017-09-05T01:40:55.599Z,8.55
2017-09-05T01:41:55.583Z,8.59
2017-09-05T01:42:55.573Z,8.62
2017-09-05T01:43:55.558Z,8.61
2017-09-05T01:44:55.548Z,8.66
2017-09-05T01:45:55.533Z,8.63
2017-09-05T01:46:55.520Z,8.62
2017-09-05T01:47:55.519Z,8.59
2017-09-05T01:48:55.643Z,8.62
2017-09-05T01:49:55.480Z,8.66
2017-09-05T01:50:55.469Z,8.71
2017-09-05T01:51:55.455Z,8.74
2017-09-05T01:52:55.444Z,8.74
2017-09-05T01:53:55.430Z,8.73
2017-09-05T01:54:55.665Z,8.71
2017-09-05T01:55:55.405Z,8.80
2017-09-05T01:56:55.392Z,8.76
2017-09-05T01:57:55.376Z,8.68
2017-09-05T01:58:55.365Z,8.77
2017-09-05T01:59:55.353Z,8.76
2017-09-05T02:00:55.541Z,8.70
2017-09-05T02:01:55.328Z,8.80
2017-09-05T02:02:55.316Z,8.76
2017-09-05T02:03:55.303Z,8.79
2017-09-05T02:04:55.591Z,8.76
2017-09-05T02:05:55.278Z,8.74
2017-09-05T02:06:55.415Z,8.73
2017-09-05T02:07:55.249Z,8.74
2017-09-05T02:08:55.238Z,8.68
2017-09-05T02:09:55.224Z,8.74
2017-09-05T02:10:55.243Z,8.63
2017-09-05T02:11:55.202Z,8.74
2017-09-05T02:12:55.336Z,8.71
2017-09-05T02:13:55.174Z,8.73
2017-09-05T02:14:55.161Z,8.80
2017-09-05T02:15:55.149Z,8.73
2017-09-05T02:16:55.137Z,8.76
2017-09-05T02:17:55.125Z,8.70
2017-09-05T02:18:55.265Z,8.77
2017-09-05T02:19:55.099Z,8.71
2017-09-05T02:20:55.087Z,8.66
2017-09-05T02:21:55.074Z,8.74
2017-09-05T02:22:55.059Z,8.76
2017-09-05T02:23:55.047Z,8.76
2017-09-05T02:24:55.184Z,8.71
2017-09-05T02:25:55.025Z,8.66
2017-09-05T02:26:55.010Z,8.68
2017-09-05T02:27:54.996Z,8.66
2017-09-05T02:28:54.983Z,8.66
2017-09-05T02:29:54.972Z,8.61
2017-09-05T02:30:54.959Z,8.62
2017-09-05T02:31:54.948Z,8.61
2017-09-05T02:32:54.935Z,8.56
2017-09-05T02:33:54.921Z,8.56
2017-09-05T02:34:54.909Z,8.59
2017-09-05T02:35:55.044Z,8.58
2017-09-05T02:36:54.880Z,8.65
2017-09-05T02:37:54.865Z,8.63
2017-09-05T02:38:54.855Z,8.65
2017-09-05T02:39:54.843Z,8.65
2017-09-05T02:40:54.829Z,8.62
2017-09-05T02:41:55.419Z,8.56
2017-09-05T02:42:54.805Z,8.48
2017-09-05T02:43:54.796Z,8.50
2017-09-05T02:44:54.779Z,8.62
2017-09-05T02:45:54.767Z,8.47
2017-09-05T02:46:54.757Z,8.56
2017-09-05T02:47:54.890Z,8.66
2017-09-05T02:48:54.729Z,8.58
2017-09-05T02:49:54.716Z,8.59
2017-09-05T02:50:54.703Z,8.58
2017-09-05T02:51:54.691Z,8.59
2017-09-05T02:52:54.678Z,8.58
2017-09-05T02:53:54.812Z,8.59
2017-09-05T02:54:54.654Z,8.56
2017-09-05T02:55:54.637Z,8.58
2017-09-05T02:56:54.625Z,8.59
2017-09-05T02:57:54.611Z,8.52
2017-09-05T02:58:54.600Z,8.55
2017-09-05T02:59:54.738Z,8.48
2017-09-05T03:00:54.576Z,8.55
2017-09-05T03:01:54.560Z,8.53
2017-09-05T03:02:54.549Z,8.50
2017-09-05T03:03:54.536Z,8.55
2017-09-05T03:04:54.524Z,8.52
2017-09-05T03:05:54.507Z,8.61
2017-09-05T03:06:54.496Z,8.56
2017-09-05T03:07:54.483Z,8.62
2017-09-05T03:08:54.622Z,8.62
2017-09-05T03:09:54.457Z,8.56
2017-09-05T03:10:54.443Z,8.61
2017-09-05T03:11:54.433Z,8.62
2017-09-05T03:12:54.420Z,8.58
2017-09-05T03:13:54.405Z,8.55
2017-09-05T03:14:54.545Z,8.58
2017-09-05T03:15:54.382Z,8.53
2017-09-05T03:16:54.368Z,8.56
2017-09-05T03:17:54.354Z,8.63
2017-09-05T03:18:54.341Z,8.58
2017-09-05T03:19:54.332Z,8.56
2017-09-05T03:20:54.468Z,8.65
2017-09-05T03:21:54.302Z,8.65
2017-09-05T03:22:54.294Z,8.65
2017-09-05T03:23:54.280Z,8.44
2017-09-05T03:24:54.264Z,8.63
2017-09-05T03:25:54.252Z,8.56
2017-09-05T03:26:54.389Z,8.55
2017-09-05T03:27:54.227Z,8.50
2017-09-05T03:28:54.215Z,8.43
2017-09-05T03:29:54.200Z,8.45
2017-09-05T03:30:54.188Z,8.41
2017-09-05T03:31:54.174Z,8.44
2017-09-05T03:32:54.314Z,8.45
2017-09-05T03:33:54.148Z,8.48
2017-09-05T03:34:54.135Z,8.41
2017-09-05T03:35:54.125Z,8.47
2017-09-05T03:36:54.116Z,8.44
2017-09-05T03:37:54.098Z,8.52
2017-09-05T03:38:54.086Z,8.52
2017-09-05T03:39:54.071Z,8.53
2017-09-05T03:40:54.061Z,8.58
2017-09-05T03:41:54.044Z,8.59
2017-09-05T03:42:54.034Z,8.59
2017-09-05T03:43:54.172Z,8.63
2017-09-05T03:44:54.010Z,8.62
2017-09-05T03:45:53.997Z,8.62
2017-09-05T03:46:53.984Z,8.56
2017-09-05T03:47:53.972Z,8.59
2017-09-05T03:48:53.958Z,8.56
2017-09-05T03:49:54.093Z,8.55
2017-09-05T03:50:53.932Z,8.55
2017-09-05T03:51:53.922Z,8.59
2017-09-05T03:52:53.906Z,8.52
2017-09-05T03:53:53.891Z,8.52
2017-09-05T03:54:53.881Z,8.47
2017-09-05T03:55:54.018Z,8.52
2017-09-05T03:56:53.854Z,8.48
2017-09-05T03:57:53.840Z,8.38
2017-09-05T03:58:53.829Z,8.28
2017-09-05T03:59:53.814Z,8.29
2017-09-05T04:00:53.809Z,8.33
2017-09-05T04:01:53.938Z,8.29
2017-09-05T04:02:53.775Z,8.34
2017-09-05T04:03:53.765Z,8.33
2017-09-05T04:04:53.752Z,8.30
2017-09-05T04:05:53.736Z,8.33
2017-09-05T04:06:53.725Z,8.30
2017-09-05T04:07:53.864Z,8.41
2017-09-05T04:08:53.700Z,8.44
2017-09-05T04:09:53.688Z,8.44
2017-09-05T04:10:53.671Z,8.37
2017-09-05T04:11:53.661Z,8.40
2017-09-05T04:12:53.648Z,8.38
2017-09-05T04:13:53.783Z,8.40
2017-09-05T04:14:53.620Z,8.41
2017-09-05T04:15:53.608Z,8.38
2017-09-05T04:16:53.597Z,8.48
2017-09-05T04:17:53.583Z,8.44
2017-09-05T04:18:53.571Z,8.44
2017-09-05T04:19:53.559Z,8.43
2017-09-05T04:20:53.545Z,8.41
2017-09-05T04:21:53.530Z,8.38
2017-09-05T04:22:53.516Z,8.41
2017-09-05T04:23:53.657Z,8.38
2017-09-05T04:24:53.493Z,8.47
2017-09-05T04:25:53.479Z,8.43
2017-09-05T04:26:53.465Z,8.44
2017-09-05T04:27:53.453Z,8.47
2017-09-05T04:28:53.440Z,8.44
2017-09-05T04:29:53.580Z,8.47
2017-09-05T04:30:53.544Z,8.50
2017-09-05T04:31:53.519Z,8.44
2017-09-05T04:32:53.388Z,8.50
2017-09-05T04:33:53.377Z,8.47
2017-09-05T04:34:53.364Z,8.48
2017-09-05T04:35:53.502Z,8.48
2017-09-05T04:36:53.345Z,8.48
2017-09-05T04:37:53.327Z,8.55
2017-09-05T04:38:53.316Z,8.52
2017-09-05T04:39:53.302Z,8.56
2017-09-05T04:40:53.288Z,8.55
2017-09-05T04:41:53.274Z,8.55
2017-09-05T04:42:53.262Z,8.59
2017-09-05T04:43:53.249Z,8.59
2017-09-05T04:44:53.236Z,8.61
2017-09-05T04:45:53.373Z,8.61
2017-09-05T04:46:53.212Z,8.61
2017-09-05T04:47:53.198Z,8.63
2017-09-05T04:48:53.187Z,8.61
2017-09-05T04:49:53.174Z,8.62
2017-09-05T04:50:53.162Z,8.63
2017-09-05T04:51:53.301Z,8.63
2017-09-05T04:52:53.137Z,8.62
2017-09-05T04:53:53.124Z,8.65
2017-09-05T04:54:53.110Z,8.63
2017-09-05T04:55:53.099Z,8.59
2017-09-05T04:56:53.085Z,8.56
2017-09-05T04:57:53.223Z,8.63
2017-09-05T04:58:53.058Z,8.63
2017-09-05T04:59:53.048Z,8.63
2017-09-05T05:00:53.034Z,8.62
2017-09-05T05:01:53.021Z,8.63
2017-09-05T05:02:53.008Z,8.68
2017-09-05T05:03:53.145Z,8.74
2017-09-05T05:04:52.983Z,8.63
2017-09-05T05:05:52.995Z,8.66
2017-09-05T05:06:52.959Z,8.68
2017-09-05T05:07:52.947Z,8.65
2017-09-05T05:08:52.934Z,8.66
2017-09-05T05:09:53.071Z,8.76
2017-09-05T05:10:52.908Z,8.76
2017-09-05T05:11:52.894Z,8.71
2017-09-05T05:12:52.887Z,8.76
2017-09-05T05:13:52.870Z,8.73
2017-09-05T05:14:52.856Z,8.80
2017-09-05T05:15:52.997Z,8.74
2017-09-05T05:16:52.832Z,8.71
2017-09-05T05:17:52.817Z,8.66
2017-09-05T05:18:52.807Z,8.68
2017-09-05T05:19:52.793Z,8.70
2017-09-05T05:20:52.781Z,8.66
2017-09-05T05:21:52.917Z,8.76
2017-09-05T05:22:52.755Z,8.68
2017-09-05T05:23:52.744Z,8.68
2017-09-05T05:24:52.728Z,8.71
2017-09-05T05:25:52.715Z,8.71
2017-09-05T05:26:52.704Z,8.70
2017-09-05T05:27:52.841Z,8.73
2017-09-05T05:28:52.680Z,8.91
2017-09-05T05:29:52.698Z,8.80
2017-09-05T05:30:52.655Z,8.77
2017-09-05T05:31:52.641Z,8.80
2017-09-05T05:32:52.628Z,8.77
2017-09-05T05:33:52.764Z,8.79
2017-09-05T05:34:52.607Z,8.83
2017-09-05T05:35:52.593Z,8.76
2017-09-05T05:36:52.578Z,8.80
2017-09-05T05:37:52.564Z,8.80
2017-09-05T05:38:52.554Z,8.80
2017-09-05T05:39:52.689Z,8.81
2017-09-05T05:40:52.527Z,8.92
2017-09-05T05:41:52.515Z,8.89
2017-09-05T05:42:52.502Z,8.94
2017-09-05T05:43:52.490Z,8.94
2017-09-05T05:44:52.479Z,8.96
2017-09-05T05:45:52.616Z,9.01
2017-09-05T05:46:52.451Z,9.01
2017-09-05T05:47:52.441Z,8.98
2017-09-05T05:48:52.426Z,9.14
2017-09-05T05:49:52.420Z,9.10
2017-09-05T05:50:52.402Z,8.98
2017-09-05T05:51:52.539Z,9.05
2017-09-05T05:52:52.379Z,9.02
2017-09-05T05:53:52.366Z,8.98
2017-09-05T05:54:52.351Z,8.91
2017-09-05T05:55:52.338Z,8.98
2017-09-05T05:56:52.325Z,9.02
2017-09-05T05:57:52.515Z,9.01
2017-09-05T05:58:52.303Z,9.05
2017-09-05T05:59:52.294Z,9.04
2017-09-05T06:00:52.280Z,8.95
2017-09-05T06:01:52.261Z,8.98
2017-09-05T06:02:52.252Z,9.11
2017-09-05T06:03:52.241Z,9.05
2017-09-05T06:04:52.226Z,9.02
2017-09-05T06:05:52.218Z,9.17
2017-09-05T06:06:52.201Z,9.18
2017-09-05T06:07:52.190Z,9.21
2017-09-05T06:08:52.329Z,9.05
2017-09-05T06:09:52.163Z,9.15
2017-09-05T06:10:52.152Z,9.04
2017-09-05T06:11:52.172Z,9.14
2017-09-05T06:12:52.128Z,9.14
2017-09-05T06:13:52.114Z,9.15
2017-09-05T06:14:52.401Z,9.13
2017-09-05T06:15:52.090Z,9.05
2017-09-05T06:16:52.079Z,9.01
2017-09-05T06:17:52.062Z,9.01
2017-09-05T06:18:52.052Z,8.91
2017-09-05T06:19:52.040Z,8.95
2017-09-05T06:20:52.179Z,9.04
2017-09-05T06:21:52.020Z,8.99
2017-09-05T06:22:52.003Z,9.04
2017-09-05T06:23:51.989Z,9.14
2017-09-05T06:24:51.978Z,9.11
2017-09-05T06:25:51.963Z,9.13
2017-09-05T06:26:52.101Z,9.15
2017-09-05T06:27:51.938Z,9.17
2017-09-05T06:28:51.928Z,9.26
2017-09-05T06:29:51.914Z,9.17
2017-09-05T06:30:51.938Z,9.15
2017-09-05T06:31:51.889Z,9.15
2017-09-05T06:32:52.027Z,9.15
2017-09-05T06:33:51.865Z,9.18
2017-09-05T06:34:51.850Z,9.13
2017-09-05T06:35:51.838Z,9.17
2017-09-05T06:36:51.825Z,9.11
2017-09-05T06:37:51.814Z,9.02
2017-09-05T06:38:51.950Z,9.11
2017-09-05T06:39:51.788Z,9.04
2017-09-05T06:40:51.775Z,9.11
2017-09-05T06:41:51.763Z,9.13
2017-09-05T06:42:51.749Z,9.10
2017-09-05T06:43:51.737Z,8.99
2017-09-05T06:44:51.876Z,9.04
2017-09-05T06:45:51.713Z,9.01
2017-09-05T06:46:51.700Z,8.98
2017-09-05T06:47:51.692Z,8.95
2017-09-05T06:48:51.676Z,9.11
2017-09-05T06:49:51.661Z,9.10
2017-09-05T06:50:51.800Z,9.18
2017-09-05T06:51:51.636Z,9.23
2017-09-05T06:52:51.775Z,9.28
2017-09-05T06:53:51.611Z,9.35
2017-09-05T06:54:51.597Z,9.40
2017-09-05T06:55:51.586Z,9.43
2017-09-05T06:56:51.725Z,9.54
2017-09-05T06:57:51.562Z,9.50
2017-09-05T06:58:51.551Z,9.53
2017-09-05T06:59:51.537Z,9.58
2017-09-05T07:00:51.528Z,9.65
2017-09-05T07:01:51.512Z,9.65
2017-09-05T07:02:51.652Z,9.60
2017-09-05T07:03:51.488Z,9.58
2017-09-05T07:04:51.479Z,9.57
2017-09-05T07:05:51.465Z,9.60
2017-09-05T07:06:51.451Z,9.54
2017-09-05T07:07:51.589Z,9.57
2017-09-05T07:08:51.577Z,9.53
2017-09-05T07:09:51.415Z,9.54
2017-09-05T07:10:51.402Z,9.56
2017-09-05T07:11:51.391Z,9.56
2017-09-05T07:12:51.378Z,9.50
2017-09-05T07:13:51.370Z,9.43
2017-09-05T07:14:51.503Z,9.40
2017-09-05T07:15:51.489Z,9.40
2017-09-05T07:16:51.326Z,9.38
2017-09-05T07:17:51.317Z,9.38
2017-09-05T07:18:51.304Z,9.39
2017-09-05T07:19:51.292Z,9.42
2017-09-05T07:20:51.430Z,9.42
2017-09-05T07:21:51.266Z,9.40
2017-09-05T07:22:51.255Z,9.48
2017-09-05T07:23:51.240Z,9.51
2017-09-05T07:24:51.229Z,9.56
2017-09-05T07:25:51.215Z,9.50
2017-09-05T07:26:51.355Z,9.68
2017-09-05T07:27:51.191Z,9.66
2017-09-05T07:28:51.180Z,9.78
2017-09-05T07:29:51.166Z,9.75
2017-09-05T07:30:51.156Z,9.89
2017-09-05T07:31:51.142Z,10.05
2017-09-05T07:32:51.279Z,10.20
2017-09-05T07:33:51.118Z,10.17
2017-09-05T07:34:51.107Z,10.41
2017-09-05T07:35:51.095Z,10.40
2017-09-05T07:36:51.085Z,10.51
2017-09-05T07:37:51.069Z,10.68
2017-09-05T07:38:51.058Z,10.70
2017-09-05T07:39:51.046Z,10.64
2017-09-05T07:40:51.034Z,10.66
2017-09-05T07:41:51.023Z,10.79
2017-09-05T07:42:51.162Z,10.85
2017-09-05T07:43:50.999Z,10.92
2017-09-05T07:44:50.988Z,11.06
2017-09-05T07:45:50.978Z,11.00
2017-09-05T07:46:50.966Z,11.15
2017-09-05T07:47:50.954Z,11.36
2017-09-05T07:48:51.095Z,11.42
2017-09-05T07:49:50.932Z,11.67
2017-09-05T07:50:50.921Z,11.95
2017-09-05T07:51:50.911Z,12.41
2017-09-05T07:52:50.900Z,12.92
2017-09-05T07:53:50.888Z,13.20
2017-09-05T07:54:51.027Z,13.36
2017-09-05T07:55:50.866Z,13.49
2017-09-05T07:56:50.861Z,13.32
2017-09-05T07:57:50.846Z,13.17
2017-09-05T07:58:50.836Z,13.07
2017-09-05T07:59:50.973Z,12.90
2017-09-05T08:00:50.815Z,12.53
2017-09-05T08:01:50.804Z,12.35
2017-09-05T08:02:50.794Z,12.17
2017-09-05T08:03:50.784Z,12.02
2017-09-05T08:04:50.778Z,11.95
2017-09-05T08:05:50.763Z,11.85
2017-09-05T08:06:50.752Z,11.83
2017-09-05T08:07:50.743Z,11.82
2017-09-05T08:08:50.883Z,11.85
2017-09-05T08:09:50.722Z,11.86
2017-09-05T08:10:51.010Z,11.96
2017-09-05T08:11:50.700Z,11.98
2017-09-05T08:12:50.690Z,12.02
2017-09-05T08:13:50.679Z,11.96
2017-09-05T08:14:50.824Z,12.04
2017-09-05T08:15:50.661Z,12.01
2017-09-05T08:16:50.649Z,11.88
2017-09-05T08:17:50.940Z,11.86
2017-09-05T08:18:50.628Z,11.86
2017-09-05T08:19:50.620Z,11.83
2017-09-05T08:20:50.758Z,11.78
2017-09-05T08:21:50.598Z,11.76
2017-09-05T08:22:50.586Z,11.65
2017-09-05T08:23:50.580Z,11.62
2017-09-05T08:24:50.568Z,11.62
2017-09-05T08:25:50.557Z,11.49
2017-09-05T08:26:50.695Z,11.55
2017-09-05T08:27:50.685Z,11.60
2017-09-05T08:28:50.524Z,11.54
2017-09-05T08:29:50.516Z,11.52
2017-09-05T08:30:50.510Z,11.61
2017-09-05T08:31:50.494Z,11.67
2017-09-05T08:32:50.484Z,11.70
2017-09-05T08:33:50.623Z,11.91
2017-09-05T08:34:50.460Z,11.99
2017-09-05T08:35:50.453Z,12.02
2017-09-05T08:36:50.441Z,12.19
2017-09-05T08:37:50.432Z,12.31
2017-09-05T08:38:50.420Z,12.41
2017-09-05T08:39:50.410Z,12.56
2017-09-05T08:40:50.400Z,12.89
2017-09-05T08:41:50.538Z,12.90
2017-09-05T08:42:50.389Z,12.89
2017-09-05T08:43:50.371Z,12.89
2017-09-05T08:44:50.359Z,12.82
2017-09-05T08:45:50.349Z,12.77
2017-09-05T08:46:50.340Z,12.85
2017-09-05T08:47:50.478Z,12.83
2017-09-05T08:48:50.319Z,12.82
2017-09-05T08:49:50.308Z,12.83
2017-09-05T08:50:50.299Z,12.87
2017-09-05T08:51:50.289Z,12.79
2017-09-05T08:52:50.429Z,12.82
2017-09-05T08:53:50.420Z,13.00
2017-09-05T08:54:50.260Z,13.08
2017-09-05T08:55:50.250Z,13.25
2017-09-05T08:56:50.242Z,13.32
2017-09-05T08:57:50.229Z,13.59
2017-09-05T08:58:50.519Z,13.69
2017-09-05T08:59:50.363Z,13.79
2017-09-05T09:00:50.208Z,13.87
2017-09-05T09:01:50.199Z,13.85
2017-09-05T09:02:50.189Z,13.73
2017-09-05T09:03:50.176Z,13.75
2017-09-05T09:04:50.165Z,13.67
2017-09-05T09:05:50.306Z,13.67
2017-09-05T09:06:50.147Z,13.59
2017-09-05T09:07:50.139Z,13.73
2017-09-05T09:08:50.129Z,13.69
2017-09-05T09:09:50.118Z,13.63
2017-09-05T09:10:50.111Z,13.67
2017-09-05T09:11:50.250Z,13.67
2017-09-05T09:12:50.091Z,13.60
2017-09-05T09:13:50.082Z,13.59
2017-09-05T09:14:50.073Z,13.64
2017-09-05T09:15:50.066Z,13.69
2017-09-05T09:16:50.055Z,13.71
2017-09-05T09:17:50.048Z,13.75
2017-09-05T09:18:50.039Z,13.82
2017-09-05T09:19:50.031Z,13.92
2017-09-05T09:20:50.020Z,13.87
2017-09-05T09:21:50.010Z,13.99
2017-09-05T09:22:50.003Z,13.95
2017-09-05T09:23:49.993Z,14.06
2017-09-05T09:24:49.984Z,14.10
2017-09-05T09:25:49.975Z,14.03
2017-09-05T09:26:50.149Z,14.06
2017-09-05T09:27:49.957Z,14.07
2017-09-05T09:28:49.950Z,14.15
2017-09-05T09:29:49.939Z,14.27
2017-09-05T09:30:49.931Z,14.32
2017-09-05T09:31:49.924Z,14.43
2017-09-05T09:32:50.065Z,14.68
2017-09-05T09:33:49.911Z,15.01
2017-09-05T09:34:50.050Z,15.32
2017-09-05T09:35:49.888Z,15.51
2017-09-05T09:36:49.883Z,15.68
2017-09-05T09:37:49.873Z,15.67
2017-09-05T09:38:50.014Z,15.65
2017-09-05T09:39:49.858Z,15.75
2017-09-05T09:40:49.850Z,15.71
2017-09-05T09:41:49.838Z,15.56
2017-09-05T09:42:49.833Z,15.44
2017-09-05T09:43:49.827Z,15.44
2017-09-05T09:44:49.817Z,15.50
2017-09-05T09:45:49.811Z,15.62
2017-09-05T09:46:49.952Z,15.86
2017-09-05T09:47:49.945Z,16.23
2017-09-05T09:48:49.786Z,16.31
2017-09-05T09:49:49.780Z,16.14
2017-09-05T09:50:49.775Z,15.97
2017-09-05T09:51:49.766Z,15.83
2017-09-05T09:52:49.756Z,15.68
2017-09-05T09:53:49.900Z,15.47
2017-09-05T09:54:49.741Z,15.57
2017-09-05T09:55:49.734Z,15.54
2017-09-05T09:56:49.727Z,15.57
2017-09-05T09:57:49.719Z,15.59
2017-09-05T09:58:49.712Z,15.60
2017-09-05T09:59:49.703Z,15.69
2017-09-05T10:00:49.799Z,15.78
2017-09-05T10:01:49.689Z,15.76
2017-09-05T10:02:49.682Z,15.76
2017-09-05T10:03:49.675Z,15.87
2017-09-05T10:04:49.818Z,15.93
2017-09-05T10:05:49.657Z,15.94
2017-09-05T10:06:49.650Z,15.93
2017-09-05T10:07:49.644Z,16.00
2017-09-05T10:08:49.636Z,16.20
2017-09-05T10:09:49.780Z,16.31
2017-09-05T10:10:49.771Z,16.52
2017-09-05T10:11:49.614Z,17.07
2017-09-05T10:12:49.608Z,17.46
2017-09-05T10:13:49.599Z,17.86
2017-09-05T10:14:49.592Z,18.05
2017-09-05T10:15:49.585Z,17.97
2017-09-05T10:16:49.730Z,17.70
2017-09-05T10:17:49.571Z,17.68
2017-09-05T10:18:49.565Z,17.54
2017-09-05T10:19:49.559Z,17.63
2017-09-05T10:20:49.857Z,17.75
2017-09-05T10:21:49.547Z,17.89
2017-09-05T10:22:49.542Z,17.77
2017-09-05T10:23:49.685Z,17.66
2017-09-05T10:24:49.528Z,17.48
2017-09-05T10:25:49.521Z,17.34
2017-09-05T10:26:49.514Z,17.56
2017-09-05T10:27:49.507Z,17.66
2017-09-05T10:28:49.501Z,17.54
2017-09-05T10:29:49.646Z,17.48
2017-09-05T10:30:49.487Z,17.37
2017-09-05T10:31:49.485Z,17.22
2017-09-05T10:32:49.484Z,17.18
2017-09-05T10:33:49.471Z,17.18
2017-09-05T10:34:49.464Z,17.33
2017-09-05T10:35:49.608Z,17.33
2017-09-05T10:36:49.453Z,17.59
2017-09-05T10:37:49.596Z,17.54
2017-09-05T10:38:49.439Z,17.62
2017-09-05T10:39:49.433Z,17.55
2017-09-05T10:40:49.428Z,17.71
2017-09-05T10:41:49.570Z,17.58
2017-09-05T10:42:49.413Z,17.66
2017-09-05T10:43:49.410Z,17.71
2017-09-05T10:44:49.402Z,17.70
2017-09-05T10:45:49.395Z,17.96
2017-09-05T10:46:49.388Z,17.99
2017-09-05T10:47:49.533Z,18.12
2017-09-05T10:48:49.379Z,17.96
2017-09-05T10:49:49.369Z,18.03
2017-09-05T10:50:49.666Z,18.02
2017-09-05T10:51:49.359Z,17.96
2017-09-05T10:52:49.355Z,17.99
2017-09-05T10:53:49.496Z,17.90
2017-09-05T10:54:49.347Z,17.96
2017-09-05T10:55:49.336Z,18.07
2017-09-05T10:56:49.330Z,18.32
2017-09-05T10:57:49.322Z,18.20
2017-09-05T10:58:49.316Z,18.20
2017-09-05T10:59:49.312Z,18.21
2017-09-05T11:00:49.457Z,18.41
2017-09-05T11:01:49.300Z,18.20
2017-09-05T11:02:49.292Z,17.96
2017-09-05T11:03:49.287Z,17.77
2017-09-05T11:04:49.283Z,17.74
2017-09-05T11:05:49.277Z,17.71
2017-09-05T11:06:49.422Z,17.77
2017-09-05T11:07:49.416Z,17.58
2017-09-05T11:08:49.261Z,17.55
2017-09-05T11:09:49.252Z,17.59
2017-09-05T11:10:49.245Z,17.58
2017-09-05T11:11:49.241Z,17.55
2017-09-05T11:12:49.237Z,17.70
2017-09-05T11:13:49.230Z,17.74
2017-09-05T11:14:49.223Z,17.95
2017-09-05T11:15:49.218Z,18.02
2017-09-05T11:16:49.361Z,18.30
2017-09-05T11:17:49.203Z,18.51
2017-09-05T11:18:49.198Z,18.54
2017-09-05T11:19:49.195Z,18.52
2017-09-05T11:20:49.189Z,18.78
2017-09-05T11:21:49.180Z,18.76
2017-09-05T11:22:49.325Z,18.84
2017-09-05T11:23:49.170Z,18.73
2017-09-05T11:24:49.167Z,18.63
2017-09-05T11:25:49.160Z,18.58
2017-09-05T11:26:49.154Z,18.47
2017-09-05T11:27:49.147Z,18.44
2017-09-05T11:28:49.294Z,18.58
2017-09-05T11:29:49.138Z,18.69
2017-09-05T11:30:49.130Z,18.67
2017-09-05T11:31:49.126Z,18.63
2017-09-05T11:32:49.120Z,18.69
2017-09-05T11:33:49.115Z,18.73
2017-09-05T11:34:49.257Z,18.57
2017-09-05T11:35:49.104Z,18.63
2017-09-05T11:36:49.098Z,18.75
2017-09-05T11:37:49.093Z,18.52
2017-09-05T11:38:49.086Z,18.35
2017-09-05T11:39:49.081Z,18.30
2017-09-05T11:40:49.226Z,18.14
2017-09-05T11:41:49.067Z,18.03
2017-09-05T11:42:49.065Z,18.11
2017-09-05T11:43:49.058Z,17.87
2017-09-05T11:44:49.054Z,17.72
2017-09-05T11:45:49.347Z,17.66
2017-09-05T11:46:49.191Z,17.58
2017-09-05T11:47:49.037Z,17.54
2017-09-05T11:48:49.031Z,17.66
2017-09-05T11:49:49.023Z,17.74
2017-09-05T11:50:49.019Z,17.79
2017-09-05T11:51:49.012Z,17.92
2017-09-05T11:52:49.156Z,17.93
2017-09-05T11:53:48.998Z,18.05
2017-09-05T11:54:48.996Z,18.08
2017-09-05T11:55:48.986Z,18.23
2017-09-05T11:56:48.983Z,18.39
2017-09-05T11:57:48.975Z,18.35
2017-09-05T11:58:49.121Z,18.44
2017-09-05T11:59:48.965Z,18.26
2017-09-05T12:00:48.959Z,18.25
2017-09-05T12:01:48.951Z,18.32
2017-09-05T12:02:48.949Z,18.32
2017-09-05T12:03:48.940Z,18.36
2017-09-05T12:04:49.086Z,18.39
2017-09-05T12:05:48.930Z,18.48
2017-09-05T12:06:48.923Z,18.67
2017-09-05T12:07:48.916Z,18.73
2017-09-05T12:08:48.910Z,18.81
2017-09-05T12:09:48.904Z,18.88
2017-09-05T12:10:49.051Z,18.76
2017-09-05T12:11:48.893Z,18.80
2017-09-05T12:12:48.889Z,18.92
2017-09-05T12:13:48.881Z,18.84
2017-09-05T12:14:48.877Z,18.98
2017-09-05T12:15:48.872Z,19.07
2017-09-05T12:16:48.867Z,19.25
2017-09-05T12:17:48.857Z,19.23
2017-09-05T12:18:48.854Z,19.33
2017-09-05T12:19:48.848Z,19.40
2017-09-05T12:20:48.995Z,19.41
2017-09-05T12:21:48.836Z,19.37
2017-09-05T12:22:48.832Z,19.10
2017-09-05T12:23:48.826Z,19.02
2017-09-05T12:24:48.820Z,19.08
2017-09-05T12:25:48.817Z,19.23
2017-09-05T12:26:48.960Z,19.33
2017-09-05T12:27:48.804Z,19.29
2017-09-05T12:28:48.799Z,19.29
2017-09-05T12:29:48.795Z,19.18
2017-09-05T12:30:48.791Z,19.08
2017-09-05T12:31:48.784Z,18.99
2017-09-05T12:32:49.083Z,18.82
2017-09-05T12:33:48.924Z,18.70
2017-09-05T12:34:48.778Z,18.52
2017-09-05T12:35:48.761Z,18.51
2017-09-05T12:36:48.756Z,18.51
2017-09-05T12:37:48.754Z,18.35
2017-09-05T12:38:48.745Z,18.39
2017-09-05T12:39:48.741Z,18.36
2017-09-05T12:40:48.887Z,18.18
2017-09-05T12:41:48.730Z,18.20
2017-09-05T12:42:48.723Z,18.17
2017-09-05T12:43:48.720Z,18.11
2017-09-05T12:44:48.716Z,18.20
2017-09-05T12:45:48.708Z,18.27
2017-09-05T12:46:48.850Z,18.29
2017-09-05T12:47:48.696Z,18.20
2017-09-05T12:48:48.689Z,18.18
2017-09-05T12:49:48.683Z,18.26
2017-09-05T12:50:48.680Z,18.33
2017-09-05T12:51:48.672Z,18.27
2017-09-05T12:52:48.818Z,18.21
2017-09-05T12:53:48.661Z,18.23
2017-09-05T12:54:48.660Z,18.27
2017-09-05T12:55:48.656Z,18.32
2017-09-05T12:56:48.644Z,18.41
2017-09-05T12:57:48.646Z,18.41
2017-09-05T12:58:48.785Z,18.48
2017-09-05T12:59:48.628Z,18.50
2017-09-05T13:00:48.621Z,18.52
2017-09-05T13:01:48.615Z,18.57
2017-09-05T13:02:48.609Z,18.69
2017-09-05T13:03:48.604Z,18.62
2017-09-05T13:04:48.750Z,18.62
2017-09-05T13:05:48.591Z,18.47
2017-09-05T13:06:48.739Z,18.57
2017-09-05T13:07:48.582Z,18.54